Allensville, Pennsylvania
Current Conditions -  °F | °C
As of 5:35 AM on Thursday 18 Dec 2014 (Local Time) from KUNV Reporting Station
Overcast Overcast  
Wind Chill: 18°   Ceiling: 2800
Heat Index: 29°   Visibility: 10mi
Dew Point: 20°   Wind: 15mph
Humidity: 69%   Direction: 280°W
Pressure: 30.07"   Gusts: NA
Location:  40.54°N, 77.82°W
Report Text: KUNV 181035Z AUTO 28013KT 10SM OVC028 M01/M06 A3007 RMK AO2 T10151065
Loading
Personal Weather Stations






























Interactive Weather Map New forecast layout! Learn more

10-Day Weather Forecast

Advertisements
Track Severe Weather on mobile